createdAt,value
2022-11-14T00:00:59.184Z,111.43
2022-11-14T00:03:50.870Z,114.73
2022-11-14T00:06:37.867Z,109.70
2022-11-14T00:09:26.693Z,119.97
2022-11-14T00:12:13.871Z,109.80
2022-11-14T00:15:00.941Z,115.90
2022-11-14T00:17:48.061Z,107.83
2022-11-14T00:20:36.830Z,113.63
2022-11-14T00:23:23.857Z,118.87
2022-11-14T00:26:10.635Z,113.23
2022-11-14T00:28:57.709Z,111.20
2022-11-14T00:31:44.991Z,118.37
2022-11-14T00:34:31.975Z,121.10
2022-11-14T00:37:20.209Z,111.53
2022-11-14T00:40:08.118Z,109.97
2022-11-14T00:42:55.011Z,115.47
2022-11-14T00:45:45.016Z,110.10
2022-11-14T00:48:32.408Z,114.37
2022-11-14T00:51:19.778Z,107.27
2022-11-14T00:54:08.200Z,119.27
2022-11-14T00:56:55.067Z,114.50
2022-11-14T00:59:42.248Z,103.63
2022-11-14T01:02:29.386Z,111.90
2022-11-14T01:05:16.338Z,114.27
2022-11-14T01:08:03.562Z,106.97
2022-11-14T01:10:52.679Z,115.90
2022-11-14T01:13:40.153Z,113.63
2022-11-14T01:16:27.169Z,120.90
2022-11-14T01:19:14.392Z,121.33
2022-11-14T01:22:05.952Z,123.17
2022-11-14T01:24:55.257Z,117.50
2022-11-14T01:27:43.675Z,122.40
2022-11-14T01:30:30.884Z,120.73
2022-11-14T01:33:18.060Z,114.60
2022-11-14T01:36:06.419Z,118.47
2022-11-14T01:38:54.178Z,123.47
2022-11-14T01:41:41.340Z,115.23
2022-11-14T01:44:47.009Z,117.80
2022-11-14T01:47:34.730Z,121.53
2022-11-14T01:50:21.783Z,112.43
2022-11-14T01:53:08.534Z,122.63
2022-11-14T01:55:58.920Z,120.73
2022-11-14T01:58:50.209Z,118.83
2022-11-14T02:01:43.494Z,117.17
2022-11-14T02:04:34.781Z,115.30
2022-11-14T02:07:22.104Z,118.37
2022-11-14T02:10:16.445Z,111.87
2022-11-14T02:13:03.764Z,113.33
2022-11-14T02:15:51.233Z,116.53
2022-11-14T02:18:39.465Z,110.03
2022-11-14T02:21:28.209Z,114.00
2022-11-14T02:24:15.670Z,105.93
2022-11-14T02:27:03.504Z,110.13
2022-11-14T02:29:50.665Z,118.47
2022-11-14T02:33:08.803Z,111.10
2022-11-14T02:35:45.058Z,114.40
2022-11-14T02:38:33.388Z,114.00
2022-11-14T02:41:20.409Z,109.33
2022-11-14T02:44:07.256Z,123.80
2022-11-14T02:46:54.849Z,117.70
2022-11-14T02:49:41.589Z,126.80
2022-11-14T02:52:28.552Z,123.43
2022-11-14T02:55:16.865Z,130.20
2022-11-14T02:58:03.890Z,130.17
2022-11-14T03:01:18.624Z,140.33
2022-11-14T03:03:57.906Z,135.17
2022-11-14T03:06:44.678Z,145.97
2022-11-14T03:09:32.098Z,136.70
2022-11-14T03:12:20.854Z,139.90
2022-11-14T03:15:08.765Z,136.47
2022-11-14T03:17:55.939Z,145.13
2022-11-14T03:20:42.857Z,141.60
2022-11-14T03:23:29.824Z,145.90
2022-11-14T03:26:17.424Z,142.33
2022-11-14T03:29:06.267Z,136.43
2022-11-14T03:31:53.292Z,148.43
2022-11-14T03:34:40.114Z,146.83
2022-11-14T03:37:27.034Z,156.67
2022-11-14T03:40:14.487Z,151.90
2022-11-14T03:43:01.392Z,141.47
2022-11-14T03:45:50.134Z,145.27
2022-11-14T03:48:36.987Z,168.67
2022-11-14T03:51:23.736Z,171.27
2022-11-14T03:54:10.694Z,179.77
2022-11-14T03:56:57.633Z,179.77
2022-11-14T03:59:44.678Z,150.07
2022-11-14T04:02:33.425Z,159.93
2022-11-14T04:05:20.764Z,149.67
2022-11-14T04:08:08.801Z,166.00
2022-11-14T04:10:55.914Z,169.97
2022-11-14T04:13:42.830Z,163.83
2022-11-14T04:16:29.946Z,161.13
2022-11-14T04:19:18.417Z,177.90
2022-11-14T04:22:06.270Z,181.27
2022-11-14T04:24:53.188Z,164.70
2022-11-14T04:27:40.440Z,174.27
2022-11-14T04:30:32.092Z,176.33
2022-11-14T04:33:21.665Z,188.50
2022-11-14T04:36:10.470Z,192.87
2022-11-14T04:38:57.702Z,174.33
2022-11-14T04:41:45.321Z,190.60
2022-11-14T04:44:32.561Z,176.67
2022-11-14T04:47:20.081Z,195.63
2022-11-14T04:50:08.007Z,210.97
2022-11-14T04:52:56.891Z,195.57
2022-11-14T04:55:45.696Z,203.57
2022-11-14T04:58:32.833Z,214.33
2022-11-14T05:01:20.254Z,196.80
2022-11-14T05:04:07.733Z,190.53
2022-11-14T05:06:55.003Z,183.33
2022-11-14T05:09:43.524Z,195.93
2022-11-14T05:12:30.946Z,199.30
2022-11-14T05:15:17.910Z,209.80
2022-11-14T05:18:05.732Z,200.43
2022-11-14T05:20:52.972Z,203.97
2022-11-14T05:23:40.559Z,205.23
2022-11-14T05:26:28.904Z,192.00
2022-11-14T05:29:16.134Z,202.40
2022-11-14T05:32:03.542Z,189.43
2022-11-14T05:34:50.718Z,184.13
2022-11-14T05:37:37.806Z,179.77
2022-11-14T05:40:25.122Z,175.33
2022-11-14T05:43:13.639Z,167.50
2022-11-14T05:46:01.675Z,169.33
2022-11-14T05:48:48.632Z,170.50
2022-11-14T05:51:35.563Z,168.70
2022-11-14T05:54:22.294Z,162.27
2022-11-14T05:57:09.088Z,150.57
2022-11-14T05:59:57.683Z,157.63
2022-11-14T06:02:46.188Z,152.73
2022-11-14T06:05:35.368Z,162.97
2022-11-14T06:08:22.654Z,163.37
2022-11-14T06:11:11.631Z,163.90
2022-11-14T06:13:59.467Z,156.83
2022-11-14T06:16:47.985Z,157.20
2022-11-14T06:19:35.445Z,152.07
2022-11-14T06:22:22.594Z,168.40
2022-11-14T06:25:10.438Z,176.07
2022-11-14T06:27:59.329Z,160.93
2022-11-14T06:30:46.477Z,156.57
2022-11-14T06:33:37.540Z,163.60
2022-11-14T06:36:24.978Z,168.20
2022-11-14T06:39:12.045Z,152.60
2022-11-14T06:41:58.857Z,156.30
2022-11-14T06:44:45.643Z,154.27
2022-11-14T06:47:32.504Z,148.53
2022-11-14T06:50:20.710Z,141.20
2022-11-14T06:53:07.987Z,136.90
2022-11-14T06:55:58.908Z,146.03
2022-11-14T06:58:47.592Z,147.43
2022-11-14T07:01:34.732Z,138.40
2022-11-14T07:04:21.495Z,130.90
2022-11-14T07:07:09.846Z,125.00
2022-11-14T07:09:58.856Z,125.83
2022-11-14T07:12:46.021Z,141.97
2022-11-14T07:15:32.714Z,125.27
2022-11-14T07:18:19.811Z,111.60
2022-11-14T07:21:07.758Z,118.47
2022-11-14T07:23:56.379Z,103.00
2022-11-14T07:26:43.483Z,123.67
2022-11-14T07:29:30.424Z,102.53
2022-11-14T07:32:17.440Z,107.97
2022-11-14T07:35:04.489Z,108.10
2022-11-14T07:37:51.947Z,107.37
2022-11-14T07:40:40.230Z,105.70
2022-11-14T07:43:27.987Z,114.23
2022-11-14T07:46:18.429Z,101.70
2022-11-14T07:49:05.493Z,101.50
2022-11-14T07:51:52.443Z,88.93
2022-11-14T07:54:39.562Z,90.37
2022-11-14T07:57:27.665Z,85.43
2022-11-14T08:00:17.012Z,71.13
2022-11-14T08:03:04.043Z,72.30
2022-11-14T08:05:51.001Z,80.03
2022-11-14T08:08:38.254Z,71.53
2022-11-14T08:11:39.009Z,76.33
2022-11-14T08:14:27.730Z,70.90
2022-11-14T08:17:14.658Z,68.53
2022-11-14T08:20:01.564Z,71.40
2022-11-14T08:22:49.102Z,67.23
2022-11-14T08:25:35.959Z,70.87
2022-11-14T08:28:22.797Z,64.77
2022-11-14T08:31:11.247Z,70.47
2022-11-14T08:33:58.096Z,64.67
2022-11-14T08:36:45.439Z,63.47
2022-11-14T08:39:32.260Z,59.60
2022-11-14T08:42:19.203Z,60.07
2022-11-14T08:45:06.782Z,57.50
2022-11-14T08:47:55.647Z,55.50
2022-11-14T08:50:42.503Z,55.63
2022-11-14T08:53:29.348Z,53.17
2022-11-14T08:56:16.298Z,55.03
2022-11-14T08:59:04.719Z,63.67
2022-11-14T09:01:51.764Z,55.63
2022-11-14T09:04:39.958Z,56.63
2022-11-14T09:07:28.787Z,57.07
2022-11-14T09:10:16.074Z,57.77
2022-11-14T09:13:03.812Z,52.47
2022-11-14T09:15:50.941Z,52.53
2022-11-14T09:18:38.014Z,51.47
2022-11-14T09:21:26.464Z,49.90
2022-11-14T09:24:13.357Z,49.50
2022-11-14T09:27:00.229Z,52.03
2022-11-14T09:29:47.572Z,50.20
2022-11-14T09:32:34.284Z,51.17
2022-11-14T09:35:21.174Z,45.93
2022-11-14T09:38:11.875Z,50.37
2022-11-14T09:41:16.355Z,49.40
2022-11-14T09:44:24.836Z,48.53
2022-11-14T09:47:20.556Z,47.47
2022-11-14T09:50:18.020Z,49.30
2022-11-14T09:53:16.429Z,50.60
2022-11-14T09:56:03.635Z,51.33
2022-11-14T09:58:51.292Z,49.90
2022-11-14T10:01:50.155Z,47.97
2022-11-14T10:04:50.573Z,45.13
2022-11-14T10:07:50.777Z,45.10
2022-11-14T10:10:59.456Z,47.97
2022-11-14T10:14:04.616Z,42.23
2022-11-14T10:17:01.962Z,47.10
2022-11-14T10:20:00.979Z,48.00
2022-11-14T10:23:07.243Z,49.80
2022-11-14T10:26:06.535Z,42.70
2022-11-14T10:29:24.692Z,47.67
2022-11-14T10:32:20.629Z,49.40
2022-11-14T10:35:15.080Z,48.73
2022-11-14T10:38:10.317Z,43.27
2022-11-14T10:41:02.479Z,45.83
2022-11-14T10:43:50.944Z,45.13
2022-11-14T10:46:40.914Z,50.57
2022-11-14T10:49:32.537Z,48.37
2022-11-14T10:52:23.646Z,47.47
2022-11-14T10:55:15.601Z,45.57
2022-11-14T10:58:09.632Z,44.73
2022-11-14T11:00:56.686Z,43.33
2022-11-14T11:03:45.626Z,44.90
2022-11-14T11:06:32.769Z,48.93
2022-11-14T11:09:45.102Z,44.67
2022-11-14T11:12:44.568Z,41.53
2022-11-14T11:15:40.739Z,45.17
2022-11-14T11:18:30.725Z,43.17
2022-11-14T11:21:21.856Z,41.97
2022-11-14T11:24:10.717Z,37.03
2022-11-14T11:27:22.582Z,35.53
2022-11-14T11:30:19.818Z,38.77
2022-11-14T11:33:23.856Z,38.47
2022-11-14T11:36:17.720Z,44.13
2022-11-14T11:39:04.799Z,37.57
2022-11-14T11:42:11.012Z,36.67
2022-11-14T11:45:02.500Z,37.40
2022-11-14T11:47:57.381Z,42.43
2022-11-14T11:50:45.967Z,37.97
2022-11-14T11:53:38.281Z,34.07
2022-11-14T11:56:28.801Z,37.73
2022-11-14T11:59:28.769Z,33.93
2022-11-14T12:02:23.578Z,31.20
2022-11-14T12:05:16.505Z,38.20
2022-11-14T12:08:09.675Z,31.90
2022-11-14T12:10:58.178Z,40.03
2022-11-14T12:14:09.121Z,33.23
2022-11-14T12:17:14.658Z,33.20
2022-11-14T12:20:24.050Z,35.47
2022-11-14T12:23:34.367Z,32.10
2022-11-14T12:26:36.604Z,38.23
2022-11-14T12:29:47.701Z,34.27
2022-11-14T12:32:39.663Z,32.07
2022-11-14T12:35:31.102Z,33.03
2022-11-14T12:38:21.623Z,31.37
2022-11-14T12:41:10.066Z,31.03
2022-11-14T12:44:18.513Z,31.97
2022-11-14T12:47:18.056Z,32.23
2022-11-14T12:50:21.923Z,32.53
2022-11-14T12:53:42.280Z,31.10
2022-11-14T12:57:00.692Z,32.30
2022-11-14T12:59:57.807Z,34.13
2022-11-14T13:03:01.310Z,37.30
2022-11-14T13:05:58.426Z,38.63
2022-11-14T13:09:23.045Z,35.97
2022-11-14T13:12:47.825Z,37.00
2022-11-14T13:15:54.924Z,37.10
2022-11-14T13:19:31.969Z,35.30
2022-11-14T13:22:39.122Z,33.43
2022-11-14T13:25:27.646Z,32.90
2022-11-14T13:28:47.927Z,35.17
2022-11-14T13:31:47.359Z,35.67
2022-11-14T13:34:41.435Z,37.47
2022-11-14T13:37:46.028Z,33.67
2022-11-14T13:40:39.487Z,35.47
2022-11-14T13:43:40.494Z,34.57
2022-11-14T13:46:40.782Z,34.40
2022-11-14T13:49:53.435Z,35.53
2022-11-14T13:52:43.485Z,37.60
2022-11-14T13:55:39.275Z,38.23
2022-11-14T13:58:39.323Z,36.80
2022-11-14T14:01:43.867Z,35.77
2022-11-14T14:04:46.727Z,37.83
2022-11-14T14:07:49.375Z,38.73
2022-11-14T14:10:43.093Z,39.83
2022-11-14T14:13:44.919Z,41.73
2022-11-14T14:16:41.352Z,40.83
2022-11-14T14:19:42.228Z,40.20
2022-11-14T14:22:37.463Z,42.67
2022-11-14T14:25:31.435Z,41.40
2022-11-14T14:28:31.632Z,40.43
2022-11-14T14:31:23.244Z,42.73
2022-11-14T14:34:26.119Z,42.17
2022-11-14T14:37:21.482Z,41.07
2022-11-14T14:40:23.693Z,39.17
2022-11-14T14:43:23.289Z,44.63
2022-11-14T14:46:11.886Z,42.33
2022-11-14T14:49:01.878Z,40.57
2022-11-14T14:51:48.796Z,49.40
2022-11-14T14:54:35.855Z,47.27
2022-11-14T14:57:23.670Z,47.40
2022-11-14T15:00:20.212Z,46.77
2022-11-14T15:03:11.850Z,47.07
2022-11-14T15:06:00.575Z,47.57
2022-11-14T15:08:47.855Z,54.57
2022-11-14T15:11:35.001Z,49.13
2022-11-14T15:14:24.916Z,50.80
2022-11-14T15:17:12.951Z,51.67
2022-11-14T15:20:01.820Z,51.23
2022-11-14T15:23:04.380Z,57.40
2022-11-14T15:26:02.920Z,56.27
2022-11-14T15:28:50.062Z,60.77
2022-11-14T15:31:37.899Z,63.33
2022-11-14T15:34:27.936Z,69.37
2022-11-14T15:37:25.780Z,69.17
2022-11-14T15:40:20.420Z,67.67
2022-11-14T15:43:39.262Z,69.93
2022-11-14T15:46:43.700Z,74.93
2022-11-14T15:49:30.779Z,77.97
2022-11-14T15:52:22.815Z,78.43
2022-11-14T15:55:17.382Z,71.13
2022-11-14T15:58:27.142Z,77.13
2022-11-14T16:01:18.561Z,77.97
2022-11-14T16:04:06.232Z,75.90
2022-11-14T16:06:53.463Z,78.20
2022-11-14T16:09:40.571Z,75.43
2022-11-14T16:12:29.544Z,79.90
2022-11-14T16:15:17.398Z,78.93
2022-11-14T16:18:06.388Z,85.37
2022-11-14T16:20:58.686Z,88.60
2022-11-14T16:23:46.079Z,83.53
2022-11-14T16:26:33.219Z,77.80
2022-11-14T16:29:22.060Z,79.93
2022-11-14T18:50:18.880Z,84.17
2022-11-14T18:53:06.068Z,88.10
2022-11-14T18:55:53.305Z,78.53
2022-11-14T18:58:41.572Z,84.40
2022-11-14T19:01:32.132Z,93.13
2022-11-14T19:04:19.825Z,91.47
2022-11-14T19:07:09.969Z,93.27
2022-11-14T19:09:57.017Z,82.37
2022-11-14T19:12:43.960Z,91.97
2022-11-14T19:15:30.919Z,86.13
2022-11-14T19:18:18.001Z,90.80
2022-11-14T19:21:06.261Z,91.03
2022-11-14T19:23:55.019Z,97.03
2022-11-14T19:26:42.023Z,97.33
2022-11-14T19:29:28.893Z,107.10
2022-11-14T19:32:15.969Z,103.10
2022-11-14T19:35:03.191Z,98.27
2022-11-14T19:37:50.380Z,104.83
2022-11-14T19:40:39.705Z,116.47
2022-11-14T19:43:27.990Z,105.60
2022-11-14T19:46:17.035Z,111.20
2022-11-14T19:49:07.350Z,105.83
2022-11-14T19:51:54.595Z,107.23
2022-11-14T19:54:41.561Z,106.80
2022-11-14T19:57:32.897Z,113.03
2022-11-14T20:00:20.787Z,106.50
2022-11-14T20:03:07.894Z,102.27
2022-11-14T20:05:56.256Z,112.27
2022-11-14T20:08:43.567Z,109.77
2022-11-14T20:11:32.187Z,106.97
2022-11-14T20:14:21.297Z,125.10
2022-11-14T20:17:08.800Z,124.00
2022-11-14T20:19:55.792Z,121.47
2022-11-14T20:22:42.670Z,129.70
2022-11-14T20:25:30.341Z,116.67
2022-11-14T20:28:17.587Z,114.90
2022-11-14T20:31:08.773Z,127.00
2022-11-14T20:33:56.987Z,120.33
2022-11-14T20:37:09.206Z,122.63
2022-11-14T20:39:51.753Z,132.47
2022-11-14T20:42:39.180Z,132.87
2022-11-14T20:45:26.579Z,123.93
2022-11-14T20:48:14.975Z,129.33
2022-11-14T20:51:06.955Z,127.57
2022-11-14T20:53:56.079Z,126.30
2022-11-14T20:56:43.577Z,129.17
2022-11-14T20:59:30.890Z,124.43
2022-11-14T21:02:17.900Z,128.37
2022-11-14T21:05:07.229Z,131.13
2022-11-14T21:07:54.337Z,137.10
2022-11-14T21:10:48.777Z,129.33
2022-11-14T21:13:54.279Z,133.60
2022-11-14T21:16:41.563Z,141.67
2022-11-14T21:19:30.047Z,131.90
2022-11-14T21:22:18.626Z,132.90
2022-11-14T21:25:06.333Z,142.53
2022-11-14T21:27:53.710Z,147.37
2022-11-14T21:30:40.762Z,140.87
2022-11-14T21:33:29.912Z,153.07
2022-11-14T21:39:28.022Z,155.27
2022-11-14T21:42:18.359Z,160.33
2022-11-14T21:45:07.204Z,185.70
2022-11-14T21:47:54.565Z,210.63
2022-11-14T21:50:42.848Z,213.90
2022-11-14T21:53:31.361Z,223.70
2022-11-14T21:56:23.029Z,239.70
2022-11-14T21:59:16.448Z,270.77
2022-11-14T22:02:21.266Z,249.50
2022-11-14T22:05:09.128Z,223.73
2022-11-14T22:07:56.071Z,256.10
2022-11-14T22:10:43.069Z,227.80
2022-11-14T22:13:32.734Z,220.67
2022-11-14T22:16:20.802Z,213.23
2022-11-14T22:19:07.885Z,223.07
2022-11-14T22:21:55.373Z,217.87
2022-11-14T22:24:42.819Z,267.17
2022-11-14T22:27:29.769Z,267.23
2022-11-14T22:30:18.534Z,258.70
2022-11-14T22:33:05.894Z,275.77
2022-11-14T22:35:53.560Z,248.77
2022-11-14T22:38:41.198Z,273.10
2022-11-14T22:41:32.989Z,284.27
2022-11-14T22:44:20.933Z,250.57
2022-11-14T22:47:09.504Z,282.57
2022-11-14T22:49:56.764Z,276.30
2022-11-14T22:52:43.636Z,244.07
2022-11-14T22:55:30.651Z,240.73
2022-11-14T22:58:17.826Z,242.67
2022-11-14T23:01:12.523Z,238.20
2022-11-14T23:04:03.183Z,264.30
2022-11-14T23:06:50.796Z,273.57
2022-11-14T23:09:37.812Z,253.60
2022-11-14T23:12:25.049Z,303.83
2022-11-14T23:15:12.187Z,209.93
2022-11-14T23:18:00.056Z,306.30
2022-11-14T23:20:48.516Z,281.60
2022-11-14T23:23:35.858Z,229.90
2022-11-14T23:26:23.206Z,227.37
2022-11-14T23:29:15.541Z,284.93
2022-11-14T23:32:02.909Z,280.80
2022-11-14T23:34:50.017Z,293.57
2022-11-14T23:37:38.574Z,298.07
2022-11-14T23:40:25.916Z,231.03
2022-11-14T23:43:12.965Z,304.17
2022-11-14T23:46:00.250Z,316.97
2022-11-14T23:48:47.423Z,308.17
2022-11-14T23:51:34.320Z,294.33
2022-11-14T23:54:22.644Z,238.20
2022-11-14T23:57:09.927Z,240.43
2022-11-14T23:59:57.038Z,242.23
